CheckWX is a tool to help pilots better visualize weather data.  It is not intended as a substitute for an official pre-flight weather briefing.

13:34:30 UTC

KXLL METAR
Allentown Queen City Municipal Airport
Allentown, Pennsylvania, USA
Current

20 mins ago

KXLL 071315Z AUTO 00000KT 10SM OVC044 00/M04 A3037 RMK AO2
Observed
Dec-7 @ 13:15 UTC
Visibility
10 SM
Flight Rules
VFR
Cloud Levels
  • Overcast at 4,400' AGL
Temperature
C / 32°F
Dewpoint
-4°C / 25°F
Humidity
75%
Altimeter
30.37" Hg
Pressure
1028.42 hPa
Previous

40 mins ago

KXLL 071255Z AUTO 00000KT 10SM OVC044 M01/M04 A3036 RMK AO2
Observed
Dec-7 @ 12:55 UTC
Visibility
10 SM
Flight Rules
VFR
Cloud Levels
  • Overcast at 4,400' AGL
Temperature
-1°C / 30°F
Dewpoint
-4°C / 25°F
Humidity
80%
Altimeter
30.36" Hg
Pressure
1028.12 hPa
Previous

60 mins ago

KXLL 071235Z AUTO 00000KT 10SM OVC042 M01/M05 A3036 RMK AO2
Observed
Dec-7 @ 12:35 UTC
Visibility
10 SM
Flight Rules
VFR
Cloud Levels
  • Overcast at 4,200' AGL
Temperature
-1°C / 30°F
Dewpoint
-5°C / 23°F
Humidity
75%
Altimeter
30.36" Hg
Pressure
1028.12 hPa